Time;durP1;ratioP1;P1;durP2;ratioP2;P2;SDS_P1;SDS_P2;PMS_P1;PMS_P2;Temp;Humidity;BMP_temperature;BMP_pressure;BME280_temperature;BME280_humidity;BME280_pressure;Samples;Min_cycle;Max_cycle;Signal;HPM_P1;HPM_P2
2022/07/06 00:01:32;;;;;;;2.67;2.47;;;18.80;99.90;;;;;;5114482;28;20216;-84
2022/07/06 00:04:02;;;;;;;3.08;2.88;;;18.90;99.90;;;;;;5114543;28;20227;-84
2022/07/06 00:06:30;;;;;;;3.35;3.05;;;18.90;99.90;;;;;;5114493;28;20231;-84
2022/07/06 00:08:59;;;;;;;3.10;2.88;;;19.00;99.90;;;;;;5114593;28;20203;-85
2022/07/06 00:11:29;;;;;;;3.25;3.03;;;19.00;99.90;;;;;;5114256;28;20225;-84
2022/07/06 00:13:57;;;;;;;3.03;2.80;;;19.00;99.90;;;;;;5114697;28;20254;-84
2022/07/06 00:16:26;;;;;;;4.05;3.25;;;18.90;99.90;;;;;;5114377;28;20286;-85
2022/07/06 00:18:54;;;;;;;3.80;3.42;;;18.90;99.90;;;;;;5114692;28;20210;-85
2022/07/06 00:21:23;;;;;;;2.90;2.70;;;18.80;99.90;;;;;;5114035;28;20291;-85
2022/07/06 00:23:52;;;;;;;2.90;2.70;;;18.90;99.90;;;;;;5114703;28;20254;-84
2022/07/06 00:26:20;;;;;;;3.83;3.30;;;18.90;99.90;;;;;;5114351;28;20226;-84
2022/07/06 00:28:50;;;;;;;3.40;3.10;;;18.90;99.90;;;;;;5114310;28;20219;-84
2022/07/06 00:31:18;;;;;;;2.33;2.15;;;18.90;99.90;;;;;;5114382;28;20219;-85
2022/07/06 00:33:47;;;;;;;4.15;3.10;;;19.00;99.90;;;;;;5114044;28;20292;-85
2022/07/06 00:36:16;;;;;;;2.95;2.75;;;19.00;99.90;;;;;;5114699;28;20204;-84
2022/07/06 00:38:44;;;;;;;2.63;2.42;;;19.00;99.90;;;;;;5113809;28;20230;-84
2022/07/06 00:41:14;;;;;;;2.85;2.65;;;19.00;99.90;;;;;;5113797;28;20207;-84
2022/07/06 00:43:52;;;;;;;3.10;2.90;;;19.10;99.90;;;;;;5113891;28;20243;-84
2022/07/06 00:46:21;;;;;;;3.40;3.20;;;19.10;99.90;;;;;;5113945;28;20230;-84
2022/07/06 00:48:49;;;;;;;3.97;3.67;;;19.10;99.90;;;;;;5113820;28;20199;-85
2022/07/06 00:51:18;;;;;;;3.40;3.20;;;19.10;99.90;;;;;;5112952;28;20241;-85
2022/07/06 00:53:47;;;;;;;5.25;4.55;;;19.00;99.90;;;;;;5113410;28;20239;-85
2022/07/06 00:56:16;;;;;;;3.95;3.55;;;18.90;99.90;;;;;;5113524;28;20220;-85
2022/07/06 00:58:45;;;;;;;4.85;4.45;;;19.00;99.90;;;;;;5113809;28;20272;-84
2022/07/06 01:01:15;;;;;;;3.88;3.58;;;18.90;99.90;;;;;;5113696;28;20258;-84
2022/07/06 01:03:43;;;;;;;4.75;4.35;;;18.90;99.90;;;;;;5113665;28;20300;-84
2022/07/06 01:06:12;;;;;;;4.35;3.97;;;18.90;99.90;;;;;;5113069;28;20291;-84
2022/07/06 01:08:40;;;;;;;4.72;4.32;;;18.90;99.90;;;;;;5113561;28;20278;-84
2022/07/06 01:11:09;;;;;;;4.93;3.88;;;18.90;99.90;;;;;;5113303;28;20223;-84
2022/07/06 01:13:37;;;;;;;6.47;4.55;;;18.90;99.90;;;;;;5113257;28;20295;-84
2022/07/06 01:16:06;;;;;;;4.72;4.38;;;18.90;99.90;;;;;;5113236;28;20210;-84
2022/07/06 01:18:36;;;;;;;4.13;3.80;;;18.90;99.90;;;;;;5113262;28;20267;-84
2022/07/06 01:21:11;;;;;;;7.47;4.72;;;18.90;99.90;;;;;;5112765;28;20199;-84
2022/07/06 01:23:43;;;;;;;4.03;3.72;;;18.90;99.90;;;;;;5113237;28;20243;-84
2022/07/06 01:26:14;;;;;;;5.35;4.85;;;18.90;99.90;;;;;;5113622;28;20208;-84
2022/07/06 01:28:43;;;;;;;4.75;4.35;;;18.90;99.90;;;;;;5113281;28;20208;-85
2022/07/06 01:31:16;;;;;;;5.45;5.05;;;18.90;99.90;;;;;;5113314;28;20283;-84
2022/07/06 01:33:44;;;;;;;5.22;4.18;;;18.90;99.90;;;;;;5113296;28;20246;-84
2022/07/06 01:36:14;;;;;;;5.53;5.03;;;18.90;99.90;;;;;;5113702;28;20267;-85
2022/07/06 01:38:47;;;;;;;4.30;4.00;;;18.90;99.90;;;;;;5112921;28;20270;-85
2022/07/06 01:41:15;;;;;;;6.28;4.82;;;18.90;99.90;;;;;;5113064;28;20231;-84
2022/07/06 01:43:44;;;;;;;5.43;3.95;;;18.90;99.90;;;;;;5113273;28;20306;-84
2022/07/06 01:46:13;;;;;;;4.90;4.30;;;19.00;99.90;;;;;;5113500;28;20226;-84
2022/07/06 01:48:41;;;;;;;5.30;4.90;;;19.00;99.90;;;;;;5113162;28;20210;-84
2022/07/06 01:51:10;;;;;;;5.30;4.80;;;19.00;99.90;;;;;;5113096;28;20210;-84
2022/07/06 01:53:39;;;;;;;8.18;4.03;;;19.00;99.90;;;;;;5113022;28;20254;-84
2022/07/06 01:56:09;;;;;;;4.25;3.95;;;19.10;99.90;;;;;;5113248;28;20291;-84
2022/07/06 01:58:37;;;;;;;4.25;3.95;;;19.10;99.90;;;;;;5113469;28;20227;-84
2022/07/06 02:01:09;;;;;;;5.28;4.00;;;19.10;99.90;;;;;;5113922;28;20273;-84
2022/07/06 02:03:38;;;;;;;4.05;3.75;;;19.10;99.90;;;;;;5116934;28;20247;-85
2022/07/06 02:06:07;;;;;;;4.63;3.50;;;19.10;99.90;;;;;;5116846;28;20202;-84
2022/07/06 02:08:36;;;;;;;3.83;3.50;;;19.10;99.90;;;;;;5117218;28;20234;-84
2022/07/06 02:11:07;;;;;;;4.05;3.75;;;19.10;99.90;;;;;;5116702;28;20318;-85
2022/07/06 02:13:36;;;;;;;3.85;3.55;;;19.20;99.90;;;;;;5116779;28;20224;-84
2022/07/06 02:16:05;;;;;;;3.60;3.30;;;19.20;99.90;;;;;;5116629;28;20249;-84
2022/07/06 02:18:33;;;;;;;3.83;3.50;;;19.20;99.90;;;;;;5116539;28;20200;-84
2022/07/06 02:21:01;;;;;;;3.65;3.35;;;19.30;99.90;;;;;;5116391;28;20231;-84
2022/07/06 02:23:30;;;;;;;3.28;3.08;;;19.30;99.90;;;;;;5116427;28;20251;-84
2022/07/06 02:25:58;;;;;;;3.65;3.35;;;19.30;99.90;;;;;;5116981;28;20230;-84
2022/07/06 02:28:28;;;;;;;3.38;3.13;;;19.30;99.90;;;;;;5116339;28;20223;-84
2022/07/06 02:30:56;;;;;;;3.53;3.30;;;19.30;99.90;;;;;;5116324;28;20223;-84
2022/07/06 02:33:25;;;;;;;3.45;3.25;;;19.30;99.90;;;;;;5116167;28;20231;-84
2022/07/06 02:35:53;;;;;;;3.70;3.22;;;19.30;99.90;;;;;;5116517;28;20249;-84
2022/07/06 02:38:21;;;;;;;3.85;3.53;;;19.30;99.90;;;;;;5116410;28;20295;-84
2022/07/06 02:40:50;;;;;;;3.22;3.03;;;19.20;99.90;;;;;;5116179;28;20230;-84
2022/07/06 02:43:18;;;;;;;4.05;3.67;;;19.20;99.90;;;;;;5116035;28;20279;-84
2022/07/06 02:45:48;;;;;;;3.47;3.17;;;19.20;99.90;;;;;;5116189;28;20211;-84
2022/07/06 02:48:17;;;;;;;4.47;3.75;;;19.10;99.90;;;;;;5116253;28;20210;-84
2022/07/06 02:50:45;;;;;;;3.40;3.17;;;19.10;99.90;;;;;;5115956;28;20294;-85
2022/07/06 02:53:14;;;;;;;4.10;3.70;;;19.00;99.90;;;;;;5116473;28;20304;-84
2022/07/06 02:55:42;;;;;;;3.85;3.55;;;19.00;99.90;;;;;;5116229;28;20203;-84
2022/07/06 02:58:10;;;;;;;4.10;3.30;;;18.90;99.90;;;;;;5116502;28;20215;-84
2022/07/06 03:00:39;;;;;;;3.97;3.67;;;18.90;99.90;;;;;;5115931;28;20316;-84
2022/07/06 03:03:10;;;;;;;3.35;3.05;;;18.90;99.90;;;;;;5115897;28;20224;-84
2022/07/06 03:05:38;;;;;;;3.85;3.45;;;18.80;99.90;;;;;;5116089;28;20282;-84
2022/07/06 03:08:06;;;;;;;4.80;4.22;;;18.80;99.90;;;;;;5116054;28;20223;-84
2022/07/06 03:10:35;;;;;;;4.65;3.63;;;18.80;99.90;;;;;;5115580;28;20318;-84
2022/07/06 03:13:03;;;;;;;3.80;3.03;;;18.70;99.90;;;;;;5114473;27;20251;-84
2022/07/06 03:15:31;;;;;;;3.65;3.35;;;18.70;99.90;;;;;;5115671;28;20299;-84
2022/07/06 03:18:00;;;;;;;3.38;2.92;;;18.70;99.90;;;;;;5115789;28;20242;-84
2022/07/06 03:20:29;;;;;;;3.42;3.10;;;18.70;99.90;;;;;;5115356;28;20294;-84
2022/07/06 03:22:58;;;;;;;3.70;3.35;;;18.70;99.90;;;;;;5115394;28;20221;-84
2022/07/06 03:25:26;;;;;;;3.20;2.80;;;18.70;99.90;;;;;;5115254;28;20203;-84
2022/07/06 03:27:54;;;;;;;4.07;3.67;;;18.70;99.90;;;;;;5115400;28;20208;-84
2022/07/06 03:30:22;;;;;;;3.90;3.25;;;18.70;99.90;;;;;;5115012;28;20228;-84
2022/07/06 03:32:51;;;;;;;2.85;2.65;;;18.70;99.90;;;;;;5115470;28;20290;-84
2022/07/06 03:35:19;;;;;;;3.22;2.78;;;18.60;99.90;;;;;;5115404;27;20287;-84
2022/07/06 03:37:49;;;;;;;2.47;2.28;;;18.60;99.90;;;;;;5114666;28;20227;-84
2022/07/06 03:40:17;;;;;;;3.78;2.85;;;18.60;99.90;;;;;;5115336;28;20196;-84
2022/07/06 03:42:45;;;;;;;3.42;3.13;;;18.60;99.90;;;;;;5115175;28;20254;-84
2022/07/06 03:45:14;;;;;;;3.72;3.10;;;18.60;99.90;;;;;;5114767;28;20317;-84
2022/07/06 03:47:42;;;;;;;2.50;2.40;;;18.60;99.90;;;;;;5115509;28;20228;-84
2022/07/06 03:50:10;;;;;;;3.30;2.58;;;18.60;99.90;;;;;;5114911;28;20227;-84
2022/07/06 03:52:39;;;;;;;2.75;2.55;;;18.60;99.90;;;;;;5115063;27;20319;-84
2022/07/06 03:55:11;;;;;;;2.63;2.45;;;18.60;99.90;;;;;;5114808;28;20200;-84
2022/07/06 03:57:40;;;;;;;5.28;3.13;;;18.60;99.90;;;;;;5115094;28;20204;-84
2022/07/06 04:00:10;;;;;;;2.83;2.40;;;18.50;99.90;;;;;;5115300;28;20199;-84
2022/07/06 04:02:38;;;;;;;3.45;3.00;;;18.50;99.90;;;;;;5115000;28;20318;-83
2022/07/06 04:05:07;;;;;;;3.80;2.65;;;18.60;99.90;;;;;;5114641;28;20227;-84
2022/07/06 04:07:36;;;;;;;2.90;2.67;;;18.60;99.90;;;;;;5114618;28;20204;-84
2022/07/06 04:10:05;;;;;;;10.45;3.15;;;18.70;99.90;;;;;;5114334;28;20274;-84
2022/07/06 04:12:41;;;;;;;6.18;3.10;;;18.70;99.90;;;;;;5114215;28;20303;-84
2022/07/06 04:15:10;;;;;;;2.80;2.60;;;18.70;99.90;;;;;;5114897;28;20199;-84
2022/07/06 04:17:53;;;;;;;2.42;2.22;;;18.70;99.90;;;;;;5114142;28;20224;-84
2022/07/06 04:20:23;;;;;;;2.40;2.25;;;18.80;99.90;;;;;;5114126;28;20207;-84
2022/07/06 04:22:51;;;;;;;2.63;2.42;;;18.80;99.90;;;;;;5114247;28;20247;-84
2022/07/06 04:25:20;;;;;;;2.63;2.42;;;18.90;99.90;;;;;;5114145;28;20228;-84
2022/07/06 04:27:49;;;;;;;2.63;2.42;;;18.90;99.90;;;;;;5114453;28;20207;-85
2022/07/06 04:30:18;;;;;;;4.30;3.17;;;18.90;99.90;;;;;;5113964;28;20279;-84
2022/07/06 04:32:46;;;;;;;2.85;2.65;;;19.00;99.90;;;;;;5114096;28;20252;-84
2022/07/06 04:35:14;;;;;;;2.30;2.20;;;19.00;99.90;;;;;;5114211;28;20224;-84
2022/07/06 04:37:42;;;;;;;2.35;2.20;;;19.10;99.90;;;;;;5113750;28;20275;-84
2022/07/06 04:40:11;;;;;;;6.53;3.20;;;19.20;99.90;;;;;;5114095;28;20208;-84
2022/07/06 04:42:45;;;;;;;2.55;2.35;;;19.20;99.90;;;;;;5114217;28;20223;-84
2022/07/06 04:45:15;;;;;;;2.65;2.42;;;19.40;99.90;;;;;;5113875;28;20239;-84
2022/07/06 04:47:44;;;;;;;2.00;1.90;;;19.40;99.90;;;;;;5113823;28;20200;-84
2022/07/06 04:50:12;;;;;;;1.73;1.63;;;19.50;99.90;;;;;;5113807;28;20219;-84
2022/07/06 04:52:41;;;;;;;2.20;2.10;;;19.50;99.90;;;;;;5114039;28;20289;-84
2022/07/06 04:55:10;;;;;;;2.45;2.25;;;19.60;99.90;;;;;;5114182;28;20200;-84
2022/07/06 04:57:38;;;;;;;2.38;2.20;;;19.70;99.90;;;;;;5113933;28;20207;-84
2022/07/06 05:00:08;;;;;;;2.45;1.92;;;19.70;99.90;;;;;;5113341;28;20281;-84
2022/07/06 05:02:38;;;;;;;3.10;2.90;;;19.80;99.90;;;;;;5113722;28;20227;-84
2022/07/06 05:05:06;;;;;;;2.00;1.90;;;19.80;99.90;;;;;;5113326;28;20223;-84
2022/07/06 05:07:39;;;;;;;2.22;1.98;;;19.80;99.90;;;;;;5113651;28;20234;-84
2022/07/06 05:10:09;;;;;;;2.03;1.92;;;19.80;99.90;;;;;;5113626;28;20242;-84
2022/07/06 05:12:37;;;;;;;3.10;2.30;;;19.80;99.90;;;;;;5113453;28;20299;-84
2022/07/06 05:15:07;;;;;;;2.25;2.05;;;19.80;99.90;;;;;;5113367;28;20227;-84
2022/07/06 05:17:35;;;;;;;2.22;2.05;;;19.80;99.90;;;;;;5113604;28;20203;-84
2022/07/06 05:20:06;;;;;;;2.20;2.10;;;19.80;99.90;;;;;;5113122;28;20237;-91
2022/07/06 05:22:35;;;;;;;2.72;2.53;;;19.80;99.90;;;;;;5113004;28;20246;-90
2022/07/06 05:25:11;;;;;;;3.83;2.42;;;19.90;99.90;;;;;;5114771;28;20218;-85
2022/07/06 05:27:39;;;;;;;1.88;1.77;;;19.90;99.90;;;;;;5113353;28;20290;-85
2022/07/06 05:30:08;;;;;;;2.50;2.30;;;20.00;99.90;;;;;;5112956;28;20207;-85
2022/07/06 05:32:37;;;;;;;3.00;2.50;;;20.10;99.90;;;;;;5112785;28;20228;-85
2022/07/06 05:35:08;;;;;;;3.35;1.83;;;20.20;99.90;;;;;;5113434;28;20199;-85
2022/07/06 05:37:56;;;;;;;2.45;2.08;;;20.30;99.90;;;;;;5112673;28;20208;-85
2022/07/06 05:40:24;;;;;;;2.42;2.30;;;20.30;99.90;;;;;;5113232;28;20287;-85
2022/07/06 05:42:52;;;;;;;2.83;2.10;;;20.50;99.90;;;;;;5112955;28;20428;-85
2022/07/06 05:45:22;;;;;;;3.03;2.58;;;20.70;99.90;;;;;;5113381;28;20311;-85
2022/07/06 05:50:34;;;;;;;2.05;1.95;;;20.80;99.90;;;;;;5089992;28;20207;-85
2022/07/06 05:53:05;;;;;;;2.53;2.33;;;20.80;99.90;;;;;;5113053;28;20246;-85
2022/07/06 05:55:44;;;;;;;1.90;1.80;;;20.90;99.90;;;;;;5113170;28;20224;-85
2022/07/06 05:58:12;;;;;;;2.20;2.00;;;20.90;99.90;;;;;;5112956;28;20287;-85
2022/07/06 06:00:40;;;;;;;2.78;2.50;;;20.90;99.90;;;;;;5113226;28;20199;-85
2022/07/06 06:03:09;;;;;;;4.30;2.13;;;20.90;99.90;;;;;;5113279;28;20223;-85
2022/07/06 06:05:38;;;;;;;2.83;2.08;;;21.00;99.90;;;;;;5113164;28;20242;-85
2022/07/06 06:08:07;;;;;;;2.42;2.22;;;21.10;99.90;;;;;;5113226;28;20294;-85
2022/07/06 06:10:35;;;;;;;2.53;2.33;;;21.20;99.90;;;;;;5112470;28;20235;-85
2022/07/06 06:13:03;;;;;;;3.05;2.75;;;21.10;99.90;;;;;;5112925;28;20239;-85
2022/07/06 06:15:32;;;;;;;3.40;2.85;;;21.10;99.90;;;;;;5112988;28;20287;-85
2022/07/06 06:18:00;;;;;;;2.83;2.20;;;21.20;99.90;;;;;;5113029;28;20234;-86
2022/07/06 06:20:28;;;;;;;3.15;2.83;;;21.20;99.90;;;;;;5112431;28;20211;-85
2022/07/06 06:23:00;;;;;;;3.10;2.80;;;21.20;99.90;;;;;;5112388;28;20247;-85
2022/07/06 06:25:32;;;;;;;2.70;2.50;;;21.30;99.90;;;;;;5112659;28;20223;-85
2022/07/06 06:28:01;;;;;;;2.33;2.13;;;21.40;99.90;;;;;;5113038;28;20199;-85
2022/07/06 06:30:29;;;;;;;2.60;2.20;;;21.50;99.90;;;;;;5112813;28;20283;-85
2022/07/06 06:33:12;;;;;;;2.28;2.15;;;21.70;99.90;;;;;;5112876;28;20298;-85
2022/07/06 06:35:44;;;;;;;1.73;1.63;;;21.80;99.90;;;;;;5112499;28;20231;-85
2022/07/06 06:38:14;;;;;;;2.35;2.15;;;22.00;99.90;;;;;;5112578;28;20208;-85
2022/07/06 06:40:43;;;;;;;2.13;2.03;;;22.10;99.90;;;;;;5112660;28;20207;-85
2022/07/06 06:43:11;;;;;;;2.10;1.95;;;22.20;99.90;;;;;;5112270;28;20220;-85
2022/07/06 06:45:40;;;;;;;1.98;1.88;;;22.40;99.90;;;;;;5112412;28;20220;-86
2022/07/06 06:48:09;;;;;;;22.05;2.25;;;22.50;99.90;;;;;;5113700;28;20204;-85
2022/07/06 06:50:44;;;;;;;2.42;2.22;;;22.50;99.90;;;;;;5116322;28;20271;-85
2022/07/06 06:53:14;;;;;;;2.33;2.13;;;22.40;99.90;;;;;;5116173;28;20219;-85
2022/07/06 06:55:42;;;;;;;2.53;2.25;;;22.30;99.90;;;;;;5116284;28;20197;-85
2022/07/06 06:58:10;;;;;;;2.10;1.70;;;22.30;99.90;;;;;;5116125;28;20257;-85
2022/07/06 07:00:39;;;;;;;2.80;2.33;;;22.30;99.90;;;;;;5115694;28;20208;-85
2022/07/06 07:03:07;;;;;;;2.55;2.00;;;22.40;99.90;;;;;;5116092;28;20280;-85
2022/07/06 07:05:35;;;;;;;4.05;2.50;;;22.40;99.90;;;;;;5115558;28;20219;-85
2022/07/06 07:08:04;;;;;;;4.35;2.08;;;22.60;99.90;;;;;;5115719;28;20203;-84
2022/07/06 07:10:34;;;;;;;2.33;2.13;;;22.90;99.90;;;;;;5115347;28;20239;-85
2022/07/06 07:13:02;;;;;;;2.13;2.03;;;23.10;99.90;;;;;;5116344;28;20302;-85
2022/07/06 07:15:31;;;;;;;2.58;2.17;;;23.30;99.90;;;;;;5115382;28;20230;-85
2022/07/06 07:17:59;;;;;;;2.08;1.95;;;23.60;99.90;;;;;;5115548;28;20291;-85
2022/07/06 07:20:29;;;;;;;1.92;1.83;;;23.90;99.90;;;;;;5115408;28;20214;-85
2022/07/06 07:22:58;;;;;;;2.40;2.20;;;24.20;99.90;;;;;;5115527;28;20247;-85
2022/07/06 07:25:27;;;;;;;2.00;1.90;;;24.40;99.90;;;;;;5115503;28;20226;-85
2022/07/06 07:27:57;;;;;;;2.45;2.03;;;24.70;99.90;;;;;;5115542;27;20203;-85
2022/07/06 07:30:25;;;;;;;1.80;1.70;;;25.30;99.90;;;;;;5115168;28;20196;-85
2022/07/06 07:32:55;;;;;;;3.45;2.40;;;25.80;99.90;;;;;;5114903;28;20251;-85
2022/07/06 07:35:24;;;;;;;2.58;1.85;;;26.20;99.90;;;;;;5115342;28;20207;-85
2022/07/06 07:37:52;;;;;;;1.95;1.85;;;26.60;99.90;;;;;;5114860;28;20234;-85
2022/07/06 07:40:21;;;;;;;1.88;1.70;;;27.00;99.90;;;;;;5115183;28;20227;-85
2022/07/06 07:42:50;;;;;;;2.15;2.00;;;27.60;99.90;;;;;;5115169;28;20223;-85
2022/07/06 07:45:20;;;;;;;2.13;1.90;;;27.30;99.90;;;;;;5115488;28;20231;-85
2022/07/06 07:47:48;;;;;;;2.13;2.03;;;26.70;99.90;;;;;;5115020;28;20290;-85
2022/07/06 07:50:18;;;;;;;1.83;1.73;;;25.90;99.90;;;;;;5115130;28;20227;-85
2022/07/06 07:52:46;;;;;;;2.58;2.38;;;25.20;99.90;;;;;;5115323;28;20254;-85
2022/07/06 07:55:14;;;;;;;2.30;2.13;;;24.80;99.90;;;;;;5114931;28;20232;-85
2022/07/06 07:58:02;;;;;;;2.03;1.92;;;24.50;99.90;;;;;;5115008;28;20204;-85
2022/07/06 08:00:33;;;;;;;1.45;1.42;;;24.50;99.90;;;;;;5114509;28;20291;-85
2022/07/06 08:03:01;;;;;;;2.00;1.90;;;24.50;99.90;;;;;;5114768;27;20258;-85
2022/07/06 08:05:29;;;;;;;2.03;1.92;;;24.10;99.90;;;;;;5114902;28;20200;-85
2022/07/06 08:07:58;;;;;;;2.85;2.25;;;24.10;99.90;;;;;;5114378;28;20224;-85
2022/07/06 08:10:26;;;;;;;2.22;2.13;;;24.30;99.90;;;;;;5113918;28;20242;-85
2022/07/06 08:12:54;;;;;;;1.83;1.73;;;24.90;99.90;;;;;;5114489;28;20248;-85
2022/07/06 08:15:23;;;;;;;2.13;2.03;;;25.80;99.90;;;;;;5114263;28;20223;-85
2022/07/06 08:17:52;;;;;;;2.50;1.90;;;27.40;99.90;;;;;;5114485;28;20281;-85
2022/07/06 08:20:21;;;;;;;1.90;1.77;;;28.90;99.90;;;;;;5114375;28;20196;-85
2022/07/06 08:22:50;;;;;;;1.98;1.80;;;30.50;99.90;;;;;;5114358;28;20264;-85
2022/07/06 08:25:18;;;;;;;2.00;1.90;;;31.50;99.90;;;;;;5114206;28;20210;-85
2022/07/06 08:27:46;;;;;;;2.10;1.95;;;31.70;98.30;;;;;;5114371;28;20252;-85
2022/07/06 08:30:15;;;;;;;2.33;1.60;;;32.50;95.60;;;;;;5114238;28;20206;-85
2022/07/06 08:32:44;;;;;;;1.50;1.40;;;;;;;;;;5114117;28;20284;-85
2022/07/06 08:35:34;;;;;;;1.90;1.80;;;33.10;94.30;;;;;;5114814;28;20198;-84
2022/07/06 08:38:02;;;;;;;1.77;1.67;;;;;;;;;;5113579;28;20246;-85
2022/07/06 08:40:34;;;;;;;2.63;1.90;;;34.80;88.70;;;;;;5113688;28;20262;-85
2022/07/06 08:43:03;;;;;;;1.70;1.60;;;35.60;82.00;;;;;;5113865;28;20219;-85
2022/07/06 08:45:34;;;;;;;1.70;1.60;;;36.10;78.80;;;;;;5113771;28;20242;-85
2022/07/06 08:48:06;;;;;;;6.90;1.95;;;36.10;76.20;;;;;;5113787;28;20284;-85
2022/07/06 08:50:36;;;;;;;2.17;1.63;;;35.10;77.20;;;;;;5113772;28;20294;-85
2022/07/06 08:53:06;;;;;;;1.73;1.63;;;35.60;78.90;;;;;;5113662;28;20258;-85
2022/07/06 08:55:35;;;;;;;2.00;1.90;;;36.50;75.30;;;;;;5113951;28;20222;-85
2022/07/06 08:58:06;;;;;;;2.03;1.92;;;36.40;73.50;;;;;;5113834;28;20203;-85
2022/07/06 09:00:35;;;;;;;2.00;1.90;;;35.80;73.20;;;;;;5113852;28;20286;-85
2022/07/06 09:03:04;;;;;;;2.08;1.88;;;34.00;74.40;;;;;;5113792;28;20227;-85
2022/07/06 09:05:35;;;;;;;2.13;1.70;;;32.80;72.40;;;;;;5113622;28;20308;-86
2022/07/06 09:08:05;;;;;;;1.70;1.60;;;32.50;74.80;;;;;;5113273;28;20223;-86
2022/07/06 09:10:34;;;;;;;2.42;2.13;;;32.20;77.30;;;;;;5112228;28;20237;-85
2022/07/06 09:13:06;;;;;;;1.85;1.75;;;31.80;78.90;;;;;;5113665;28;20247;-86
2022/07/06 09:15:36;;;;;;;2.80;2.03;;;31.50;76.90;;;;;;5113461;28;20303;-85
2022/07/06 09:18:05;;;;;;;1.70;1.60;;;31.00;76.50;;;;;;5113592;28;20199;-85
2022/07/06 09:20:34;;;;;;;3.03;1.83;;;30.60;78.90;;;;;;5113234;28;20200;-85
2022/07/06 09:23:06;;;;;;;1.90;1.80;;;30.20;80.30;;;;;;5113589;28;20227;-85
2022/07/06 09:25:41;;;;;;;1.98;1.88;;;30.40;80.20;;;;;;5113351;28;20211;-85
2022/07/06 09:28:09;;;;;;;2.17;2.05;;;30.60;80.90;;;;;;5112786;28;20223;-86
2022/07/06 09:30:40;;;;;;;2.03;1.85;;;31.20;82.90;;;;;;5113267;28;20211;-85
2022/07/06 09:33:09;;;;;;;1.90;1.80;;;31.50;79.40;;;;;;5113126;28;20251;-85
2022/07/06 09:35:39;;;;;;;2.08;1.98;;;31.50;79.50;;;;;;5112906;28;20299;-85
2022/07/06 09:38:12;;;;;;;1.77;1.67;;;31.20;80.40;;;;;;5112989;28;20199;-86
2022/07/06 09:40:42;;;;;;;1.90;1.80;;;31.10;78.80;;;;;;5112993;28;20230;-86
2022/07/06 09:43:12;;;;;;;2.35;2.15;;;31.00;82.20;;;;;;5113157;28;20223;-85
2022/07/06 09:45:42;;;;;;;2.28;2.03;;;31.60;80.50;;;;;;5113245;28;20282;-86
2022/07/06 09:48:13;;;;;;;1.58;1.48;;;32.60;81.00;;;;;;5112703;28;20223;-86
2022/07/06 09:50:47;;;;;;;2.03;1.90;;;32.90;76.80;;;;;;5112835;28;20237;-84
2022/07/06 09:53:17;;;;;;;1.45;1.35;;;33.30;75.80;;;;;;5112947;28;20242;-84
2022/07/06 09:55:47;;;;;;;1.15;1.15;;;33.30;73.00;;;;;;5113213;28;20203;-84
2022/07/06 09:58:15;;;;;;;1.60;1.50;;;33.00;74.70;;;;;;5113075;28;20199;-84
2022/07/06 10:00:44;;;;;;;1.60;1.55;;;32.90;74.90;;;;;;5113215;28;20293;-84
2022/07/06 10:03:13;;;;;;;2.03;1.83;;;33.40;74.50;;;;;;5113084;28;20215;-84
2022/07/06 10:05:43;;;;;;;2.08;1.90;;;33.80;72.80;;;;;;5113166;28;20227;-84
2022/07/06 10:08:11;;;;;;;1.60;1.50;;;33.60;72.70;;;;;;5112538;28;20215;-84
2022/07/06 10:10:43;;;;;;;1.83;1.70;;;33.00;75.00;;;;;;5112536;28;20222;-84
2022/07/06 10:13:12;;;;;;;1.70;1.60;;;32.60;74.30;;;;;;5113119;28;20342;-84
2022/07/06 10:15:41;;;;;;;1.45;1.35;;;32.50;70.40;;;;;;5113030;28;20211;-83
2022/07/06 10:18:11;;;;;;;1.75;1.65;;;32.60;69.50;;;;;;5112926;28;20195;-84
2022/07/06 10:20:40;;;;;;;2.45;2.10;;;32.20;69.70;;;;;;5112527;28;20203;-83
2022/07/06 10:23:09;;;;;;;2.10;2.00;;;30.80;72.30;;;;;;5115237;28;20246;-84
2022/07/06 10:25:38;;;;;;;2.55;2.08;;;29.50;73.80;;;;;;5116628;27;20291;-84
2022/07/06 10:28:14;;;;;;;2.00;1.80;;;28.90;76.00;;;;;;5116564;28;20220;-84
2022/07/06 10:30:44;;;;;;;1.90;1.80;;;28.30;78.90;;;;;;5116538;28;20275;-86
2022/07/06 10:33:15;;;;;;;1.85;1.75;;;28.10;80.80;;;;;;5115443;28;20227;-86
2022/07/06 10:35:44;;;;;;;2.28;2.08;;;28.20;81.20;;;;;;5115809;28;20208;-86
2022/07/06 10:38:12;;;;;;;2.00;1.83;;;28.10;80.30;;;;;;5116249;28;20287;-86
2022/07/06 10:43:38;;;;;;;1.88;1.77;;;26.60;83.40;;;;;;5116443;28;20231;-86
2022/07/06 10:46:11;;;;;;;2.10;2.00;;;25.90;86.40;;;;;;5116253;28;20203;-86
2022/07/06 10:48:40;;;;;;;2.10;2.00;;;25.60;88.50;;;;;;5116025;28;20234;-86
2022/07/06 10:51:11;;;;;;;4.10;3.05;;;25.30;89.30;;;;;;5116182;28;20227;-85
2022/07/06 10:53:41;;;;;;;2.63;2.30;;;24.80;94.60;;;;;;5116170;28;20223;-86
2022/07/06 10:56:11;;;;;;;1.90;1.80;;;23.90;97.40;;;;;;5116047;28;20234;-85
2022/07/06 10:58:48;;;;;;;2.03;1.83;;;22.90;97.30;;;;;;5116224;28;20253;-86
2022/07/06 11:01:16;;;;;;;2.17;1.70;;;22.20;99.90;;;;;;5115937;28;20211;-86
2022/07/06 11:03:46;;;;;;;2.00;1.90;;;21.90;99.90;;;;;;5116178;28;20234;-85
2022/07/06 11:06:16;;;;;;;1.75;1.65;;;21.40;97.80;;;;;;5116107;28;20290;-85
2022/07/06 11:08:53;;;;;;;1.90;1.80;;;21.30;99.10;;;;;;5115859;28;20242;-86
2022/07/06 11:11:24;;;;;;;1.67;1.58;;;21.20;99.60;;;;;;5115689;28;20207;-85
2022/07/06 11:13:57;;;;;;;1.42;1.33;;;21.10;99.30;;;;;;5115728;28;20247;-86
2022/07/06 11:16:27;;;;;;;1.40;1.30;;;21.10;98.70;;;;;;5115776;28;20299;-85
2022/07/06 11:19:09;;;;;;;1.58;1.48;;;21.10;98.90;;;;;;5115582;28;20192;-86
2022/07/06 11:21:45;;;;;;;1.70;1.60;;;21.30;99.80;;;;;;5115632;28;20262;-85
2022/07/06 11:24:15;;;;;;;2.05;1.80;;;22.10;98.10;;;;;;5116174;28;20254;-85
2022/07/06 11:26:46;;;;;;;2.72;1.98;;;23.10;97.30;;;;;;5115658;28;20229;-86
2022/07/06 11:29:17;;;;;;;1.85;1.75;;;23.80;96.00;;;;;;5115065;28;20225;-85
2022/07/06 11:31:48;;;;;;;1.83;1.67;;;24.30;94.00;;;;;;5115587;28;20242;-85
2022/07/06 11:34:20;;;;;;;1.88;1.60;;;24.70;94.50;;;;;;5114629;28;20307;-85
2022/07/06 11:36:48;;;;;;;1.65;1.55;;;25.60;93.60;;;;;;5115438;28;20280;-85
2022/07/06 11:39:17;;;;;;;1.77;1.67;;;26.40;91.90;;;;;;5114949;28;20199;-86
2022/07/06 11:41:45;;;;;;;2.25;1.48;;;26.90;91.80;;;;;;5115151;28;20219;-85
2022/07/06 11:44:20;;;;;;;1.48;1.38;;;27.50;91.20;;;;;;5114966;28;20258;-85
2022/07/06 11:46:48;;;;;;;1.63;1.52;;;27.90;88.90;;;;;;5115221;28;20208;-85
2022/07/06 11:49:18;;;;;;;1.65;1.55;;;28.00;89.60;;;;;;5115123;28;20222;-85
2022/07/06 11:51:47;;;;;;;3.00;2.20;;;28.40;90.50;;;;;;5114968;28;20208;-85
2022/07/06 11:54:18;;;;;;;1.60;1.50;;;28.70;89.10;;;;;;5115075;28;20227;-85
2022/07/06 11:56:51;;;;;;;2.10;1.98;;;28.80;90.50;;;;;;5115416;28;20211;-86
2022/07/06 11:59:24;;;;;;;1.67;1.58;;;28.90;89.90;;;;;;5114954;28;20203;-86
2022/07/06 12:02:00;;;;;;;1.70;1.60;;;28.80;89.40;;;;;;5114745;28;20235;-86
2022/07/06 12:04:29;;;;;;;1.90;1.80;;;28.80;88.70;;;;;;5114714;28;20306;-86
2022/07/06 12:07:02;;;;;;;2.10;1.90;;;28.30;91.20;;;;;;5115129;28;20249;-86
2022/07/06 12:09:31;;;;;;;1.80;1.70;;;28.20;89.80;;;;;;5114358;28;20251;-86
2022/07/06 12:12:02;;;;;;;2.20;2.00;;;28.30;90.10;;;;;;5114206;28;20298;-86
2022/07/06 12:14:34;;;;;;;1.70;1.60;;;28.40;90.40;;;;;;5114458;28;20254;-86
2022/07/06 12:17:05;;;;;;;2.13;2.03;;;29.10;90.40;;;;;;5114412;28;20227;-86
2022/07/06 12:19:34;;;;;;;1.75;1.48;;;29.70;90.30;;;;;;5114762;28;20223;-86
2022/07/06 12:22:03;;;;;;;1.60;1.50;;;30.00;88.70;;;;;;5114373;28;20282;-84
2022/07/06 12:24:33;;;;;;;2.25;2.08;;;30.40;83.20;;;;;;5114469;28;20254;-84
2022/07/06 12:27:11;;;;;;;3.42;1.60;;;30.20;83.00;;;;;;5114458;28;20231;-84
2022/07/06 12:29:41;;;;;;;1.95;1.85;;;30.50;80.50;;;;;;5114141;28;20306;-84
2022/07/06 12:32:16;;;;;;;1.45;1.35;;;30.20;77.60;;;;;;5114196;28;20286;-84
2022/07/06 12:34:44;;;;;;;1.88;1.35;;;29.80;79.50;;;;;;5114067;28;20227;-84
2022/07/06 12:37:13;;;;;;;2.00;1.40;;;29.10;79.00;;;;;;5114048;28;20232;-84
2022/07/06 12:39:43;;;;;;;1.90;1.55;;;28.60;81.10;;;;;;5113863;28;20195;-84
2022/07/06 12:42:13;;;;;;;1.88;1.77;;;28.20;81.70;;;;;;5113832;28;20208;-84
2022/07/06 12:44:50;;;;;;;2.38;2.10;;;27.80;83.20;;;;;;5114437;28;20209;-84
2022/07/06 12:47:21;;;;;;;2.58;1.80;;;27.60;85.60;;;;;;5113989;28;20296;-84
2022/07/06 12:49:50;;;;;;;2.65;1.70;;;27.70;85.40;;;;;;5113823;28;20223;-84
2022/07/06 12:52:18;;;;;;;1.70;1.60;;;28.00;85.10;;;;;;5113720;28;20203;-84
2022/07/06 12:54:48;;;;;;;1.95;1.58;;;28.50;84.80;;;;;;5113961;28;20278;-84
2022/07/06 12:57:19;;;;;;;3.08;1.90;;;29.00;84.30;;;;;;5114011;28;20245;-84
2022/07/06 12:59:56;;;;;;;1.75;1.65;;;29.10;82.40;;;;;;5114100;28;20259;-84
2022/07/06 13:02:26;;;;;;;1.63;1.52;;;29.00;81.40;;;;;;5113489;28;20290;-84
2022/07/06 13:05:16;;;;;;;6.28;1.83;;;28.90;80.20;;;;;;5113756;28;20200;-85
2022/07/06 13:07:47;;;;;;;1.80;1.70;;;29.10;79.10;;;;;;5113768;28;20280;-84